Flight Track Log - Related Links

Times and Time Zones

All times are in EDT time to prevent confusion due to time zone crossing. See the USC191 flight status page for this flight to view local times or setup timezone preferences in your user account.

Time Position Orientation Groundspeed Altitude Reporting Facility
EDT Latitude Longitude Course Direction KTS MPH feet Rate Location/Type
Fri 04:00:14 AM 38.6333 -90.7000 201° Southwest 123 142 2,200  Level Gateway (St. Louis) TRACON
Fri 04:01:14 AM 38.6000 -90.7167 201° Southwest 141 162 2,900 520 Climbing Gateway (St. Louis) TRACON
Fri 04:02:44 AM 38.5569 -90.7686 223° Southwest 143 165 3,500 400 Climbing Kansas City Center
Fri 04:03:44 AM 38.5261 -90.8036 222° Southwest 148 170 3,900 400 Climbing Kansas City Center
Fri 04:04:44 AM 38.4947 -90.8425 224° Southwest 153 176 4,300 397 Climbing Kansas City Center
Fri 04:05:45 AM 38.4642 -90.8811 225° Southwest 155 178 4,700 347 Climbing Kansas City Center
Fri 04:06:45 AM 38.4331 -90.9208 225° Southwest 157 181 5,000 397 Climbing Kansas City Center
Fri 04:07:46 AM 38.4025 -90.9625 227° Southwest 160 184 5,500 397 Climbing Kansas City Center
Fri 04:08:46 AM 38.3700 -91.0028 224° Southwest 162 186 5,800 248 Climbing Kansas City Center
Fri 04:09:47 AM 38.3361 -91.0425 223° Southwest 165 190 6,000 98 Climbing Kansas City Center
Fri 04:10:48 AM 38.3003 -91.0839 222° Southwest 171 197 6,000  Level Kansas City Center
Fri 04:11:47 AM 38.2628 -91.1269 222° Southwest 179 206 6,000  Level Kansas City Center
Fri 04:12:49 AM 38.2253 -91.1703 222° Southwest 181 208 6,000  Level Kansas City Center
Fri 04:13:49 AM 38.1878 -91.2125 222° Southwest 181 208 6,000  Level Kansas City Center
Fri 04:14:49 AM 38.1450 -91.2625 223° Southwest 177 204 6,000  Level Kansas City Center
Fri 04:15:50 AM 38.1092 -91.3072 224° Southwest 178 205 6,000  Level Kansas City Center
Fri 04:16:50 AM 38.0725 -91.3486 222° Southwest 177 204 6,000  Level Kansas City Center
Fri 04:17:49 AM 38.0353 -91.3908 222° Southwest 177 204 6,000  Level Kansas City Center
Fri 04:18:52 AM 37.9989 -91.4342 223° Southwest 179 206 6,000  Level Kansas City Center
Fri 04:19:53 AM 37.9622 -91.4772 223° Southwest 178 205 6,000  Level Kansas City Center
Fri 04:20:53 AM 37.9253 -91.5214 223° Southwest 180 207 6,000  Level Kansas City Center
Fri 04:21:52 AM 37.8881 -91.5653 223° Southwest 181 208 6,000  Level Kansas City Center
Fri 04:22:52 AM 37.8500 -91.6089 222° Southwest 183 211 6,000  Level Kansas City Center
Fri 04:23:55 AM 37.8128 -91.6528 223° Southwest 182 209 6,000  Level Kansas City Center
Fri 04:24:54 AM 37.7761 -91.6972 224° Southwest 182 209 6,000  Level Kansas City Center
Fri 04:25:55 AM 37.7369 -91.7406 221° Southwest 185 213 6,000  Level Kansas City Center
Fri 04:26:57 AM 37.6994 -91.7839 222° Southwest 183 211 6,000  Level Kansas City Center
Fri 04:27:58 AM 37.6611 -91.8281 222° Southwest 185 213 6,000  Level Kansas City Center
Fri 04:28:59 AM 37.6244 -91.8722 224° Southwest 183 211 6,000  Level Kansas City Center
Fri 04:29:59 AM 37.5867 -91.9147 222° Southwest 182 209 6,000  Level Kansas City Center
Fri 04:30:58 AM 37.5486 -91.9597 223° Southwest 185 213 6,000  Level Kansas City Center
Fri 04:32:01 AM 37.5111 -92.0025 222° Southwest 183 211 6,000  Level Kansas City Center
Fri 04:32:59 AM 37.4733 -92.0458 222° Southwest 183 211 6,000  Level Kansas City Center
Fri 04:34:02 AM 37.4356 -92.0892 222° Southwest 183 211 6,000  Level Kansas City Center
Fri 04:35:03 AM 37.3981 -92.1319 222° Southwest 182 209 6,000  Level Kansas City Center
Fri 04:36:03 AM 37.3611 -92.1747 223° Southwest 181 208 6,000  Level Kansas City Center
Fri 04:37:04 AM 37.3219 -92.2178 221° Southwest 183 211 6,000  Level Kansas City Center
Fri 04:38:03 AM 37.2850 -92.2617 223° Southwest 183 211 6,000  Level Kansas City Center
Fri 04:39:05 AM 37.2475 -92.3047 222° Southwest 182 209 6,000  Level Kansas City Center
Fri 04:40:04 AM 37.2100 -92.3472 222° Southwest 182 209 6,000  Level Kansas City Center
Fri 04:41:07 AM 37.1717 -92.3908 222° Southwest 183 211 6,000  Level Kansas City Center
Fri 04:42:06 AM 37.1339 -92.4342 222° Southwest 184 212 6,000  Level Kansas City Center
Fri 04:43:08 AM 37.0967 -92.4764 222° Southwest 182 209 6,000  Level Kansas City Center
Fri 04:44:09 AM 37.0592 -92.5186 222° Southwest 181 208 6,000  Level Kansas City Center
Fri 04:45:07 AM 37.0197 -92.5617 221° Southwest 184 212 6,000  Level Kansas City Center
Fri 04:46:10 AM 36.9839 -92.6047 224° Southwest 182 209 6,000  Level Kansas City Center
Fri 04:47:11 AM 36.9453 -92.6469 221° Southwest 182 209 6,000  Level Kansas City Center
Fri 04:48:11 AM 36.9000 -92.6975 222° Southwest 182 209 6,000  Level Kansas City Center
Fri 04:49:12 AM 36.8619 -92.7394 221° Southwest 182 209 6,000  Level Kansas City Center
Fri 04:50:12 AM 36.8247 -92.7836 224° Southwest 182 209 6,000  Level Kansas City Center
Fri 04:51:12 AM 36.7869 -92.8244 221° Southwest 182 209 6,000  Level Kansas City Center
Fri 04:52:14 AM 36.7497 -92.8669 222° Southwest 181 208 6,000  Level Kansas City Center
Fri 04:53:12 AM 36.7111 -92.9081 220° Southwest 182 209 6,000  Level Kansas City Center
Fri 04:54:15 AM 36.6736 -92.9483 221° Southwest 179 206 6,000  Level Kansas City Center
Fri 04:55:16 AM 36.6364 -92.9908 223° Southwest 180 207 6,000  Level Kansas City Center
Fri 04:56:16 AM 36.5989 -93.0322 222° Southwest 180 207 6,000  Level Kansas City Center
Fri 04:57:17 AM 36.5658 -93.0678 221° Southwest 179 206 6,000  Level Kansas City Center
Fri 04:58:15 AM 36.5283 -93.1100 222° Southwest 181 208 6,000  Level Kansas City Center
Fri 04:59:18 AM 36.4911 -93.1514 222° Southwest 180 207 6,000  Level Kansas City Center
Fri 05:00:17 AM 36.4456 -93.2014 221° Southwest 182 209 6,000  Level Kansas City Center
Fri 05:01:20 AM 36.4083 -93.2442 223° Southwest 182 209 6,000  Level Kansas City Center
Fri 05:02:18 AM 36.3703 -93.2850 221° Southwest 182 209 6,000  Level Kansas City Center
Fri 05:02:50 AM 36.3511 -93.3072 223° Southwest 187 215 6,000  Level Memphis Center
Fri 05:03:50 AM 36.3125 -93.3472 220° Southwest 187 215 6,000  Level Memphis Center
Fri 05:04:50 AM 36.2739 -93.3919 223° Southwest 187 215 6,000  Level Memphis Center
Fri 05:05:50 AM 36.2353 -93.4344 222° Southwest 187 215 6,000  Level Memphis Center
Fri 05:06:50 AM 36.1969 -93.4767 222° Southwest 187 215 6,000  Level Memphis Center
Fri 05:07:50 AM 36.1583 -93.5164 220° Southwest 187 215 6,000  Level Memphis Center
Fri 05:08:50 AM 36.1217 -93.5586 223° Southwest 187 215 6,000  Level Memphis Center
Fri 05:09:50 AM 36.0808 -93.6058 223° Southwest 194 223 6,000  Level Memphis Center
Fri 05:10:50 AM 36.0425 -93.6428 218° Southwest 194 223 6,000  Level Memphis Center
Fri 05:11:50 AM 36.0039 -93.6847 221° Southwest 194 223 6,000  Level Memphis Center
Fri 05:12:50 AM 35.9628 -93.7319 223° Southwest 194 223 6,000  Level Memphis Center
Fri 05:13:50 AM 35.9286 -93.7689 221° Southwest 194 223 6,000  Level Memphis Center
Fri 05:14:50 AM 35.8833 -93.8183 222° Southwest 194 223 6,000  Level Memphis Center
Fri 05:15:50 AM 35.8425 -93.8600 220° Southwest 199 229 6,000  Level Memphis Center
Fri 05:16:50 AM 35.8039 -93.9019 221° Southwest 199 229 6,000  Level Memphis Center
Fri 05:17:50 AM 35.7631 -93.9464 221° Southwest 199 229 6,000  Level Memphis Center
Fri 05:18:50 AM 35.7264 -93.9856 221° Southwest 194 223 6,000  Level Memphis Center
Fri 05:19:50 AM 35.6875 -94.0275 221° Southwest 194 223 6,000  Level Memphis Center
Fri 05:20:50 AM 35.6508 -94.0769 228° Southwest 207 238 6,000  Level Memphis Center
Fri 05:21:50 AM 35.6100 -94.1108 214° Southwest 188 216 6,000  Level Memphis Center
Fri 05:22:50 AM 35.5714 -94.1525 221° Southwest 188 216 6,000  Level Memphis Center
Fri 05:23:50 AM 35.5325 -94.1967 223° Southwest 188 216 6,000  Level Memphis Center
Fri 05:24:50 AM 35.4958 -94.2356 221° Southwest 188 216 6,000  Level Memphis Center
Fri 05:25:50 AM 35.4547 -94.2772 220° Southwest 188 216 6,000  Level Memphis Center
Fri 05:26:50 AM 35.4139 -94.3211 221° Southwest 188 216 6,000  Level Memphis Center
Fri 05:27:50 AM 35.3769 -94.3678 226° Southwest 188 216 6,000  Level Memphis Center
Fri 05:28:50 AM 35.3361 -94.4014 214° Southwest 188 216 6,000  Level Memphis Center
Fri 05:29:50 AM 35.2992 -94.4428 222° Southwest 188 216 6,000  Level Memphis Center
Fri 05:30:50 AM 35.2583 -94.4842 220° Southwest 188 216 6,000  Level Memphis Center
Fri 05:31:50 AM 35.2236 -94.5231 222° Southwest 188 216 6,000  Level Memphis Center
Fri 05:32:50 AM 35.1847 -94.5642 221° Southwest 188 216 6,000  Level Memphis Center
Fri 05:33:50 AM 35.1458 -94.6056 221° Southwest 188 216 6,000  Level Memphis Center
Fri 05:34:50 AM 35.1089 -94.6442 221° Southwest 188 216 6,000  Level Memphis Center
Fri 05:35:50 AM 35.0717 -94.6981 230° Southwest 193 222 6,000  Level Memphis Center
Fri 05:36:50 AM 35.0328 -94.7367 219° Southwest 201 231 6,000  Level Memphis Center
Fri 05:37:36 AM 35.0050 -94.7622 217° Southwest 182 209 6,000  Level Fort Worth Center
Fri 05:38:36 AM 34.9683 -94.8039 223° Southwest 172 198 6,000  Level Fort Worth Center
Fri 05:39:36 AM 34.9272 -94.8431 218° Southwest 182 209 6,000  Level Fort Worth Center
Fri 05:40:36 AM 34.8947 -94.8794 223° Southwest 182 209 6,000  Level Fort Worth Center
Fri 05:41:36 AM 34.8558 -94.9186 220° Southwest 189 217 6,000  Level Fort Worth Center
Fri 05:42:36 AM 34.8172 -94.9678 226° Southwest 184 212 6,000  Level Fort Worth Center
Fri 05:43:36 AM 34.7806 -95.0092 223° Southwest 189 217 6,000  Level Fort Worth Center
Fri 05:44:36 AM 34.7436 -95.0508 223° Southwest 184 212 6,000  Level Fort Worth Center
Fri 05:45:36 AM 34.7089 -95.0847 219° Southwest 184 212 6,000  Level Fort Worth Center
Fri 05:46:36 AM 34.6700 -95.1211 218° Southwest 184 212 6,000  Level Fort Worth Center
Fri 05:47:36 AM 34.6247 -95.1675 220° Southwest 184 212 6,000  Level Fort Worth Center
Fri 05:48:36 AM 34.5839 -95.2039 216° Southwest 184 212 6,000 50 Level Fort Worth Center
Fri 05:49:36 AM 34.5469 -95.2428 221° Southwest 190 219 6,100  Climbing Fort Worth Center
Fri 05:50:36 AM 34.5081 -95.2842 221° Southwest 185 213 6,000 -100 Descending Fort Worth Center
Fri 05:51:36 AM 34.4669 -95.3228 218° Southwest 185 213 5,900 50 Descending Fort Worth Center
Fri 05:52:36 AM 34.4278 -95.3592 217° Southwest 185 213 6,100 100 Climbing Fort Worth Center
Fri 05:53:36 AM 34.3908 -95.3978 221° Southwest 185 213 6,100 -50 Level Fort Worth Center
Fri 05:54:36 AM 34.3519 -95.4389 221° Southwest 185 213 6,000 -50 Descending Fort Worth Center
Fri 05:55:36 AM 34.3128 -95.4775 219° Southwest 185 213 6,000  Level Fort Worth Center
Fri 05:56:36 AM 34.2717 -95.5161 218° Southwest 191 220 6,000  Level Fort Worth Center
Fri 05:57:36 AM 34.2325 -95.5522 217° Southwest 186 214 6,000  Level Fort Worth Center
Fri 05:58:36 AM 34.1936 -95.5906 219° Southwest 186 214 6,000  Level Fort Worth Center
Fri 05:59:36 AM 34.1522 -95.6292 218° Southwest 186 214 6,000  Level Fort Worth Center
Fri 06:00:36 AM 34.1153 -95.6675 221° Southwest 186 214 6,000  Level Fort Worth Center
Fri 06:01:36 AM 34.0803 -95.7008 218° Southwest 186 214 6,000  Level Fort Worth Center
Fri 06:02:36 AM 34.0411 -95.7392 219° Southwest 186 214 6,000  Level Fort Worth Center
Fri 06:03:36 AM 34.0083 -95.7850 229° Southwest 186 214 6,000  Level Fort Worth Center
Fri 06:04:36 AM 33.9608 -95.8233 214° Southwest 186 214 6,000  Level Fort Worth Center
Fri 06:05:36 AM 33.9217 -95.8617 219° Southwest 192 221 6,000  Level Fort Worth Center
Fri 06:06:36 AM 33.8931 -95.8997 228° Southwest 185 213 6,000  Level Fort Worth Center
Fri 06:07:36 AM 33.8539 -95.9378 219° Southwest 180 207 6,000 50 Level Fort Worth Center
Fri 06:08:36 AM 33.8144 -95.9786 221° Southwest 186 214 6,100  Climbing Fort Worth Center
Fri 06:09:36 AM 33.7733 -96.0217 221° Southwest 186 214 6,000 -50 Descending Fort Worth Center
Fri 06:10:36 AM 33.7425 -96.0619 227° Southwest 186 214 6,000  Level Fort Worth Center
Fri 06:11:36 AM 33.6992 -96.1053 220° Southwest 186 214 6,000  Level Fort Worth Center
Fri 06:12:36 AM 33.6661 -96.1406 222° Southwest 186 214 6,000  Level Fort Worth Center
Fri 06:13:36 AM 33.6269 -96.1861 224° Southwest 186 214 6,000  Level Fort Worth Center
Fri 06:14:36 AM 33.5917 -96.2239 222° Southwest 186 214 6,000  Level Fort Worth Center
Fri 06:15:36 AM 33.5525 -96.2669 222° Southwest 186 214 6,000  Level Fort Worth Center
Fri 06:16:36 AM 33.5172 -96.3047 222° Southwest 186 214 6,000  Level Fort Worth Center
Fri 06:17:36 AM 33.4781 -96.3475 222° Southwest 186 214 6,000  Level Fort Worth Center
Fri 06:18:36 AM 33.4428 -96.3828 220° Southwest 186 214 6,000  Level Fort Worth Center
Fri 06:19:36 AM 33.4036 -96.4281 224° Southwest 186 214 6,000  Level Fort Worth Center
Fri 06:20:36 AM 33.3706 -96.4633 222° Southwest 186 214 6,000  Level Fort Worth Center
Fri 06:21:16 AM 33.3500 -96.4833 219° Southwest 179 206 6,000  Level Dallas / Fort Worth TRACON
Fri 06:22:17 AM 33.3000 -96.5333 220° Southwest 179 206 6,000 -300 Level Dallas / Fort Worth TRACON
Fri 06:23:16 AM 33.2667 -96.5667 220° Southwest 185 213 5,400 -690 Descending Dallas / Fort Worth TRACON
Fri 06:24:10 AM 33.2333 -96.6000 220° Southwest 192 221 4,700 -737 Descending Dallas / Fort Worth TRACON
Fri 06:25:10 AM 33.1833 -96.6333 209° Southwest 190 219 4,000 -793 Descending Dallas / Fort Worth TRACON
Fri 06:26:11 AM 33.1500 -96.6833 231° Southwest 189 217 3,100 -524 Descending Dallas / Fort Worth TRACON
Fri 06:27:16 AM 33.1000 -96.7167 209° Southwest 164 189 2,900 -419 Descending Dallas / Fort Worth TRACON
Fri 06:28:20 AM 33.0667 -96.7500 220° Southwest 168 193 2,200 -656 Descending Dallas / Fort Worth TRACON
Fri 06:32:00 AM 33.0008 -96.7763 199° South  Level FlightAware Approximate
Fri 06:39:00 AM 32.9667 -96.8333 248° West  Level FlightAware Approximate
Fri 06:40:00 AM 32.9686 -96.8364 248° West  Level Estimated
Fri 06:41:00 AM 32.9667 -96.8333 248° West  Level FlightAware Approximate
Fri 06:42:00 AM 32.9686 -96.8364 248° West  Level Estimated
Fri 06:43:00 AM 32.9667 -96.8333 248° West  Level FlightAware Approximate
Fri 06:44:00 AM 32.9686 -96.8364 248° West  Level Estimated
Fri 06:45:00 AM 32.9667 -96.8333 248° West  Level FlightAware Approximate
Fri 06:46:00 AM 32.9686 -96.8364 248° West  Level Estimated
Fri 06:47:00 AM 32.9667 -96.8333 248° West  Level FlightAware Approximate

Login

Don't have an account? Register now (free) for customized features, flight alerts, and more!